createdAt,value
2024-04-18T00:05:17.356Z,5.52
2024-04-18T00:15:25.178Z,5.53
2024-04-18T00:25:35.249Z,5.52
2024-04-18T00:36:02.748Z,5.48
2024-04-18T00:46:27.781Z,5.43
2024-04-18T00:56:39.031Z,5.40
2024-04-18T01:07:13.326Z,5.52
2024-04-18T01:17:27.091Z,5.63
2024-04-18T01:27:34.698Z,5.60
2024-04-18T01:37:40.112Z,5.61
2024-04-18T01:47:54.558Z,5.67
2024-04-18T01:58:18.282Z,5.71
2024-04-18T02:08:33.571Z,5.63
2024-04-18T02:18:55.494Z,5.63
2024-04-18T02:29:03.363Z,5.70
2024-04-18T02:39:08.133Z,5.55
2024-04-18T02:49:15.620Z,5.65
2024-04-18T02:59:33.198Z,5.67
2024-04-18T03:10:00.818Z,5.63
2024-04-18T03:20:06.011Z,5.65
2024-04-18T03:30:34.177Z,5.66
2024-04-18T03:40:46.195Z,5.62
2024-04-18T03:50:56.844Z,5.68
2024-04-18T04:01:22.232Z,5.64
2024-04-18T04:11:30.383Z,5.57
2024-04-18T04:21:36.394Z,5.68
2024-04-18T04:31:43.900Z,5.67
2024-04-18T04:41:48.699Z,5.58
2024-04-18T04:51:56.860Z,5.68
2024-04-18T05:02:17.855Z,5.68
2024-04-18T05:12:28.457Z,5.66
2024-04-18T05:22:33.218Z,5.75
2024-04-18T05:32:40.827Z,5.80
2024-04-18T05:42:49.199Z,5.65
2024-04-18T05:52:57.146Z,5.83
2024-04-18T06:03:02.945Z,5.63
2024-04-18T06:13:11.104Z,5.74
2024-04-18T06:23:18.004Z,5.77
2024-04-18T06:33:46.497Z,5.75
2024-04-18T06:43:51.605Z,5.94
2024-04-18T06:53:59.031Z,6.06
2024-04-18T07:04:03.823Z,5.98
2024-04-18T07:14:11.868Z,5.85
2024-04-18T07:24:18.229Z,5.81
2024-04-18T07:34:25.986Z,5.84
2024-04-18T07:44:30.939Z,6.20
2024-04-18T07:54:38.842Z,6.26
2024-04-18T08:04:53.314Z,6.30
2024-04-18T08:15:10.811Z,6.53
2024-04-18T08:25:20.166Z,6.68
2024-04-18T08:35:27.842Z,6.75
2024-04-18T08:45:36.327Z,7.39
2024-04-18T08:55:48.315Z,7.89
2024-04-18T09:05:53.298Z,7.61
2024-04-18T09:16:01.196Z,7.53
2024-04-18T09:26:06.182Z,7.62
2024-04-18T09:36:16.171Z,7.90
2024-04-18T09:46:22.097Z,8.07
2024-04-18T09:56:34.343Z,8.03
2024-04-18T10:06:47.762Z,8.30
2024-04-18T10:17:26.086Z,8.22
2024-04-18T10:27:31.209Z,8.55
2024-04-18T10:37:39.520Z,8.39
2024-04-18T10:47:49.380Z,8.52
2024-04-18T10:57:57.035Z,8.94
2024-04-18T11:08:02.111Z,9.08
2024-04-18T11:18:10.075Z,9.36
2024-04-18T11:28:16.391Z,9.33
2024-04-18T11:38:24.412Z,9.90
2024-04-18T11:48:29.349Z,9.66
2024-04-18T11:58:36.934Z,9.50
2024-04-18T12:08:42.099Z,9.70
2024-04-18T12:19:08.179Z,9.92
2024-04-18T12:29:13.273Z,10.07
2024-04-18T12:39:38.987Z,9.99
2024-04-18T12:50:01.934Z,9.94
2024-04-18T13:00:10.948Z,10.63
2024-04-18T13:10:34.865Z,10.80
2024-04-18T13:21:02.519Z,11.32
2024-04-18T13:31:12.533Z,11.52
2024-04-18T13:41:28.339Z,11.52
2024-04-18T13:51:33.235Z,11.67
2024-04-18T14:01:41.061Z,11.66
2024-04-18T14:12:06.564Z,12.03
2024-04-18T14:22:20.299Z,11.43
2024-04-18T14:32:25.482Z,11.13
2024-04-18T14:42:42.726Z,11.47
2024-04-18T14:52:47.895Z,11.19
2024-04-18T15:03:10.472Z,11.18
2024-04-18T15:13:22.234Z,11.32
2024-04-18T15:23:29.502Z,11.29
2024-04-18T15:33:54.204Z,11.41
2024-04-18T15:44:21.708Z,11.46
2024-04-18T15:54:26.827Z,11.62
2024-04-18T16:04:35.379Z,11.71
2024-04-18T16:14:40.412Z,11.48
2024-04-18T16:24:49.075Z,11.31
2024-04-18T16:34:54.228Z,11.30
2024-04-18T16:45:12.220Z,11.04
2024-04-18T16:55:16.892Z,10.92
2024-04-18T17:05:25.514Z,10.97
2024-04-18T17:15:30.536Z,10.98
2024-04-18T17:25:38.042Z,11.00
2024-04-18T17:35:43.515Z,10.79
2024-04-18T17:45:54.159Z,10.68
2024-04-18T17:55:58.995Z,10.61
2024-04-18T18:06:07.099Z,10.55
2024-04-18T18:16:12.342Z,10.44
2024-04-18T18:26:20.051Z,10.28
2024-04-18T18:36:25.041Z,10.07
2024-04-18T18:46:32.733Z,10.02
2024-04-18T18:56:54.225Z,9.97
2024-04-18T19:07:10.292Z,9.86
2024-04-18T19:17:14.879Z,9.67
2024-04-18T19:27:22.856Z,9.76
2024-04-18T19:37:28.412Z,9.54
2024-04-18T19:47:35.997Z,9.55
2024-04-18T19:57:40.917Z,9.45
2024-04-18T20:07:48.526Z,9.44
2024-04-18T20:17:54.086Z,9.37
2024-04-18T20:28:01.802Z,9.34
2024-04-18T20:38:06.813Z,9.32
2024-04-18T20:48:14.374Z,9.24
2024-04-18T20:58:20.268Z,9.17
2024-04-18T21:08:28.093Z,9.09
2024-04-18T21:18:33.175Z,9.09
2024-04-18T21:28:41.398Z,8.97
2024-04-18T21:39:08.208Z,8.88
2024-04-18T21:49:16.534Z,8.90
2024-04-18T21:59:21.515Z,8.82
2024-04-18T22:09:29.192Z,8.77
2024-04-18T22:19:34.422Z,8.69
2024-04-18T22:29:42.386Z,8.67
2024-04-18T22:39:47.497Z,8.60
2024-04-18T22:49:56.748Z,8.58
2024-04-18T23:00:01.350Z,8.52
2024-04-18T23:10:09.494Z,8.63
2024-04-18T23:20:14.375Z,8.58
2024-04-18T23:30:22.135Z,8.61
2024-04-18T23:40:27.063Z,8.54
2024-04-18T23:50:34.633Z,8.61
